Time;durP1;ratioP1;P1;durP2;ratioP2;P2;SDS_P1;SDS_P2;PMS_P1;PMS_P2;Temp;Humidity;BMP_temperature;BMP_pressure;BME280_temperature;BME280_humidity;BME280_pressure;Samples;Min_cycle;Max_cycle;Signal;HPM_P1;HPM_P2
2020/12/07 00:00:46;;;;;;;7.53;5.03;;;2.60;94.30;;;;;;6269171;22;27333;-46
2020/12/07 00:03:30;;;;;;;7.53;4.88;;;2.60;94.20;;;;;;6270505;22;27273;-45
2020/12/07 00:06:18;;;;;;;7.95;5.13;;;2.60;94.20;;;;;;6270261;22;27265;-47
2020/12/07 00:09:04;;;;;;;7.55;4.65;;;2.60;94.20;;;;;;6270695;22;27257;-46
2020/12/07 00:11:49;;;;;;;7.53;5.28;;;2.60;94.20;;;;;;6270353;22;27458;-46
2020/12/07 00:14:36;;;;;;;7.03;5.15;;;2.60;94.20;;;;;;6270559;22;27348;-47
2020/12/07 00:17:24;;;;;;;7.50;5.00;;;2.60;94.20;;;;;;6270152;22;27412;-46
2020/12/07 00:20:09;;;;;;;7.57;4.78;;;2.60;94.20;;;;;;6270672;22;27359;-48
2020/12/07 00:22:56;;;;;;;9.77;5.13;;;2.60;94.20;;;;;;6270131;22;27447;-45
2020/12/07 00:25:41;;;;;;;7.63;4.63;;;2.60;94.30;;;;;;6270144;22;27320;-46
2020/12/07 00:28:25;;;;;;;6.85;5.10;;;2.60;94.40;;;;;;6270497;22;27332;-47
2020/12/07 00:31:09;;;;;;;8.10;4.35;;;2.60;94.30;;;;;;6270828;22;27324;-47
2020/12/07 00:33:58;;;;;;;6.25;4.47;;;2.60;94.30;;;;;;6270635;22;27277;-47
2020/12/07 00:36:43;;;;;;;7.18;4.50;;;2.60;94.30;;;;;;6270147;22;27381;-47
2020/12/07 00:39:27;;;;;;;6.00;4.60;;;2.60;94.40;;;;;;6270471;22;27327;-47
2020/12/07 00:42:12;;;;;;;6.93;4.75;;;2.60;94.30;;;;;;6270480;22;27320;-47
2020/12/07 00:44:57;;;;;;;7.85;4.93;;;2.60;94.40;;;;;;6270508;22;27298;-47
2020/12/07 00:47:44;;;;;;;5.30;4.43;;;2.60;94.40;;;;;;6270090;22;27327;-47
2020/12/07 00:50:28;;;;;;;4.80;4.00;;;2.60;94.40;;;;;;6269049;22;27352;-48
2020/12/07 00:53:13;;;;;;;6.28;4.28;;;2.60;94.40;;;;;;6269938;22;27272;-47
2020/12/07 00:55:58;;;;;;;6.38;4.50;;;2.60;94.50;;;;;;6268906;22;27364;-68
2020/12/07 00:58:43;;;;;;;5.45;4.03;;;2.60;94.50;;;;;;6269313;22;27333;-47
2020/12/07 01:01:27;;;;;;;5.85;4.28;;;2.60;94.50;;;;;;6270124;22;27443;-46
2020/12/07 01:04:12;;;;;;;6.15;4.07;;;2.60;94.50;;;;;;6270277;22;27268;-46
2020/12/07 01:06:58;;;;;;;5.95;4.63;;;2.60;94.50;;;;;;6270398;22;27277;-46
2020/12/07 01:09:43;;;;;;;5.55;3.83;;;2.60;94.50;;;;;;6269952;22;27313;-48
2020/12/07 01:12:29;;;;;;;7.85;4.53;;;2.60;94.50;;;;;;6270760;22;27656;-47
2020/12/07 01:15:13;;;;;;;6.05;4.47;;;2.60;94.50;;;;;;6270379;22;27266;-48
2020/12/07 01:17:58;;;;;;;6.82;3.42;;;2.60;94.60;;;;;;6270032;22;27282;-47
2020/12/07 01:20:43;;;;;;;5.85;4.28;;;2.60;94.60;;;;;;6269772;22;27343;-46
2020/12/07 01:23:28;;;;;;;4.10;3.55;;;2.60;94.50;;;;;;6269897;22;27332;-46
2020/12/07 01:26:13;;;;;;;4.53;3.72;;;2.60;94.50;;;;;;6269041;22;27274;-47
2020/12/07 01:29:04;;;;;;;8.07;4.93;;;2.60;94.50;;;;;;6269984;22;27421;-70
2020/12/07 01:31:49;;;;;;;7.43;4.03;;;2.60;94.60;;;;;;6269931;22;27916;-70
2020/12/07 01:34:35;;;;;;;5.05;3.70;;;2.60;94.50;;;;;;6269899;22;27326;-47
2020/12/07 01:37:21;;;;;;;5.90;4.32;;;2.60;94.50;;;;;;6270291;22;27285;-69
2020/12/07 01:40:06;;;;;;;6.38;3.88;;;2.60;94.50;;;;;;6270285;22;27334;-68
2020/12/07 01:42:51;;;;;;;5.47;3.65;;;2.60;94.60;;;;;;6269785;22;27318;-51
2020/12/07 01:45:35;;;;;;;5.50;3.47;;;2.70;94.60;;;;;;6270043;22;27334;-69
2020/12/07 01:48:20;;;;;;;5.03;3.63;;;2.60;94.60;;;;;;6269021;22;27285;-48
2020/12/07 01:51:04;;;;;;;6.03;3.22;;;2.60;94.60;;;;;;6247210;22;27369;-48
2020/12/07 01:53:51;;;;;;;4.70;3.60;;;2.60;94.60;;;;;;6269278;22;27270;-47
2020/12/07 01:56:36;;;;;;;9.75;3.60;;;2.70;94.60;;;;;;6269808;22;27304;-47
2020/12/07 01:59:27;;;;;;;6.53;3.55;;;2.70;94.70;;;;;;6270244;22;27355;-48
2020/12/07 02:02:12;;;;;;;5.28;3.42;;;2.70;94.70;;;;;;6269711;22;27408;-47
2020/12/07 02:04:57;;;;;;;4.28;3.30;;;2.60;94.70;;;;;;6268840;22;27946;-47
2020/12/07 02:07:42;;;;;;;5.43;3.22;;;2.70;94.80;;;;;;6247713;22;27419;-47
2020/12/07 02:10:28;;;;;;;4.95;3.38;;;2.70;94.80;;;;;;6269200;22;27474;-47
2020/12/07 02:13:13;;;;;;;4.97;3.20;;;2.60;94.70;;;;;;6270103;22;27330;-47
2020/12/07 02:15:58;;;;;;;6.20;3.67;;;2.70;94.70;;;;;;6269317;22;27342;-47
2020/12/07 02:18:50;;;;;;;5.70;3.15;;;2.70;94.70;;;;;;6269240;22;27442;-68
2020/12/07 02:21:35;;;;;;;4.85;3.20;;;2.60;94.60;;;;;;6270419;22;27407;-47
2020/12/07 02:24:38;;;;;;;4.28;3.17;;;2.70;94.70;;;;;;6269413;22;27350;-47
2020/12/07 02:27:33;;;;;;;5.35;3.55;;;2.60;94.70;;;;;;6268993;22;27262;-48
2020/12/07 02:30:19;;;;;;;4.32;3.30;;;2.70;94.70;;;;;;6269046;22;27345;-47
2020/12/07 02:33:04;;;;;;;4.50;3.13;;;2.70;94.80;;;;;;6270083;22;27363;-47
2020/12/07 02:35:50;;;;;;;4.50;3.13;;;2.60;94.80;;;;;;6269620;22;27351;-47
2020/12/07 02:38:35;;;;;;;6.00;3.72;;;2.70;94.90;;;;;;6269857;22;27885;-47
2020/12/07 02:41:20;;;;;;;4.93;2.95;;;2.60;94.90;;;;;;6268406;22;27364;-68
2020/12/07 02:44:05;;;;;;;5.07;2.83;;;2.60;95.20;;;;;;6269572;22;27409;-67
2020/12/07 02:46:50;;;;;;;5.07;2.78;;;2.60;94.90;;;;;;6269883;22;27428;-47
2020/12/07 02:49:38;;;;;;;5.70;3.55;;;2.70;94.90;;;;;;6269902;22;27394;-47
2020/12/07 02:52:24;;;;;;;3.72;3.15;;;2.60;94.90;;;;;;6268592;22;27364;-46
2020/12/07 02:55:10;;;;;;;3.95;3.30;;;2.70;95.00;;;;;;6269928;22;27338;-48
2020/12/07 02:57:55;;;;;;;5.13;4.03;;;2.70;95.00;;;;;;6269755;22;28298;-47
2020/12/07 03:00:45;;;;;;;3.85;3.30;;;2.70;94.90;;;;;;6270397;22;27416;-48
2020/12/07 03:03:33;;;;;;;3.33;3.03;;;2.70;94.90;;;;;;6269727;22;27360;-50
2020/12/07 03:06:18;;;;;;;5.03;4.43;;;2.70;94.90;;;;;;6269452;22;27396;-47
2020/12/07 03:09:05;;;;;;;3.72;2.97;;;2.70;94.90;;;;;;6268214;22;27393;-47
2020/12/07 03:11:50;;;;;;;4.40;3.40;;;2.70;94.90;;;;;;6268857;22;27286;-50
2020/12/07 03:14:35;;;;;;;3.72;2.97;;;2.70;94.90;;;;;;6269707;22;27380;-47
2020/12/07 03:17:20;;;;;;;4.35;3.72;;;2.70;95.00;;;;;;6269463;22;26935;-48
2020/12/07 03:20:05;;;;;;;4.78;3.88;;;2.70;94.90;;;;;;6269394;22;27276;-47
2020/12/07 03:22:50;;;;;;;4.18;3.53;;;2.70;95.00;;;;;;6269442;22;27338;-47
2020/12/07 03:25:35;;;;;;;3.70;3.20;;;2.70;95.00;;;;;;6268267;22;27316;-47
2020/12/07 03:28:20;;;;;;;4.22;3.28;;;2.70;95.00;;;;;;6269421;22;27293;-46
2020/12/07 03:31:05;;;;;;;3.80;3.42;;;2.70;94.90;;;;;;6269239;22;27339;-47
2020/12/07 03:33:50;;;;;;;4.07;3.47;;;2.70;94.90;;;;;;6268448;22;27278;-48
2020/12/07 03:36:40;;;;;;;3.28;2.90;;;2.70;94.90;;;;;;6270550;22;27488;-47
2020/12/07 03:39:24;;;;;;;3.70;2.70;;;2.70;94.90;;;;;;6270489;22;27352;-47
2020/12/07 03:42:17;;;;;;;3.97;3.58;;;2.80;94.90;;;;;;6270699;22;27292;-48
2020/12/07 03:45:03;;;;;;;4.47;3.15;;;2.70;94.90;;;;;;6270354;22;27339;-47
2020/12/07 03:47:49;;;;;;;3.97;3.50;;;2.80;94.90;;;;;;6269844;22;27366;-46
2020/12/07 03:50:38;;;;;;;5.95;3.50;;;2.80;94.90;;;;;;6270914;22;27352;-48
2020/12/07 03:53:28;;;;;;;5.60;3.40;;;2.70;94.80;;;;;;6269429;22;27365;-47
2020/12/07 03:56:13;;;;;;;3.30;2.95;;;2.80;94.90;;;;;;6270006;22;27314;-46
2020/12/07 03:58:59;;;;;;;3.92;3.45;;;2.80;94.80;;;;;;6270417;22;27281;-48
2020/12/07 04:01:44;;;;;;;3.50;2.72;;;2.80;94.90;;;;;;6269446;22;27400;-47
2020/12/07 04:04:40;;;;;;;4.22;3.10;;;2.80;94.90;;;;;;6270246;22;27560;-66
2020/12/07 04:07:25;;;;;;;3.33;2.80;;;2.80;94.90;;;;;;6269424;22;27360;-47
2020/12/07 04:10:12;;;;;;;3.03;2.60;;;2.80;94.90;;;;;;6270371;22;27398;-46
2020/12/07 04:12:57;;;;;;;3.30;2.47;;;2.80;94.90;;;;;;6270789;22;27387;-48
2020/12/07 04:15:42;;;;;;;3.30;3.00;;;2.80;94.90;;;;;;6270725;22;27410;-47
2020/12/07 04:18:26;;;;;;;3.13;2.50;;;2.80;94.90;;;;;;6270606;22;27395;-48
2020/12/07 04:21:10;;;;;;;3.47;2.85;;;2.80;94.90;;;;;;6270224;22;27384;-47
2020/12/07 04:23:55;;;;;;;3.35;2.60;;;2.80;94.90;;;;;;6270199;22;27426;-47
2020/12/07 04:26:40;;;;;;;2.50;1.90;;;2.80;94.90;;;;;;6270503;22;27408;-47
2020/12/07 04:29:24;;;;;;;2.28;2.08;;;2.80;94.90;;;;;;6270116;22;27304;-47
2020/12/07 04:32:08;;;;;;;4.72;2.80;;;2.80;94.90;;;;;;6270473;22;27425;-47
2020/12/07 04:34:53;;;;;;;2.33;2.03;;;2.80;94.90;;;;;;6270567;22;27273;-47
2020/12/07 04:37:37;;;;;;;2.75;2.13;;;2.80;94.80;;;;;;6270574;22;27338;-47
2020/12/07 04:40:22;;;;;;;2.60;2.28;;;2.80;94.70;;;;;;6270503;22;27890;-47
2020/12/07 04:43:07;;;;;;;4.10;2.40;;;2.80;94.70;;;;;;6270072;22;27286;-47
2020/12/07 04:45:52;;;;;;;2.42;2.17;;;2.80;94.60;;;;;;6270135;22;27277;-48
2020/12/07 04:48:37;;;;;;;2.80;2.50;;;2.80;94.60;;;;;;6271253;22;27328;-47
2020/12/07 04:51:21;;;;;;;2.33;2.10;;;2.80;94.60;;;;;;6247749;22;27344;-48
2020/12/07 04:54:06;;;;;;;2.35;2.15;;;2.80;94.60;;;;;;6247714;22;27341;-47
2020/12/07 04:56:51;;;;;;;2.47;2.17;;;2.70;94.60;;;;;;6269109;22;27579;-49
2020/12/07 04:59:37;;;;;;;3.40;2.40;;;2.70;94.60;;;;;;6268920;22;27349;-48
2020/12/07 05:02:21;;;;;;;2.55;2.15;;;2.70;94.70;;;;;;6269835;22;27289;-47
2020/12/07 05:05:06;;;;;;;2.67;2.33;;;2.70;94.80;;;;;;6270083;22;27365;-66
2020/12/07 05:07:54;;;;;;;4.25;2.17;;;2.70;94.80;;;;;;6270110;22;27360;-48
2020/12/07 05:10:41;;;;;;;2.53;2.00;;;2.70;94.90;;;;;;6270060;22;27276;-47
2020/12/07 05:13:51;;;;;;;2.55;2.08;;;2.70;95.00;;;;;;6270327;22;27401;-48
2020/12/07 05:16:31;;;;;;;3.35;2.30;;;2.70;95.00;;;;;;6270234;22;27473;-48
2020/12/07 05:19:23;;;;;;;3.22;2.08;;;2.70;95.00;;;;;;6270406;22;27398;-47
2020/12/07 05:22:14;;;;;;;3.08;2.53;;;2.70;94.90;;;;;;6270422;22;27267;-48
2020/12/07 05:24:59;;;;;;;2.97;2.20;;;2.70;95.00;;;;;;6270048;22;27382;-46
2020/12/07 05:27:47;;;;;;;2.67;2.10;;;2.70;94.90;;;;;;6248108;22;27400;-50
2020/12/07 05:30:40;;;;;;;2.75;2.50;;;2.70;94.90;;;;;;6269998;22;27366;-48
2020/12/07 05:33:24;;;;;;;2.40;2.17;;;2.60;94.80;;;;;;6270291;22;27353;-47
2020/12/07 05:36:09;;;;;;;2.53;2.33;;;2.70;94.80;;;;;;6270238;22;27379;-46
2020/12/07 05:38:54;;;;;;;2.50;2.08;;;2.60;94.70;;;;;;6270219;22;27406;-47
2020/12/07 05:41:39;;;;;;;2.00;1.80;;;2.60;94.70;;;;;;6269897;22;27368;-46
2020/12/07 05:44:23;;;;;;;2.42;1.58;;;2.60;94.70;;;;;;6268847;22;27361;-65
2020/12/07 05:47:07;;;;;;;2.03;1.75;;;2.50;94.70;;;;;;6247300;22;27413;-46
2020/12/07 05:49:54;;;;;;;2.20;1.75;;;2.60;94.70;;;;;;6247666;22;27498;-46
2020/12/07 05:53:14;;;;;;;2.42;1.90;;;2.50;94.70;;;;;;6269654;22;27376;-46
2020/12/07 05:55:58;;;;;;;2.60;1.90;;;2.50;94.70;;;;;;6125078;23;27311;-64
2020/12/07 05:59:14;;;;;;;6.30;2.47;;;2.50;94.70;;;;;;6126393;23;27319;-48
2020/12/07 06:01:59;;;;;;;2.47;2.28;;;2.50;94.70;;;;;;6147018;23;27307;-47
2020/12/07 06:04:44;;;;;;;2.45;2.08;;;2.40;94.60;;;;;;6126281;23;27395;-47
2020/12/07 06:07:30;;;;;;;2.67;2.20;;;2.50;94.50;;;;;;6146809;23;27296;-50
2020/12/07 06:10:16;;;;;;;2.83;2.13;;;2.40;94.40;;;;;;6105906;23;27900;-48
2020/12/07 06:13:02;;;;;;;3.28;2.40;;;2.40;94.40;;;;;;6146704;23;27456;-46
2020/12/07 06:15:47;;;;;;;2.63;2.25;;;2.40;94.40;;;;;;6126253;23;27497;-46
2020/12/07 06:18:40;;;;;;;3.65;2.42;;;2.40;94.30;;;;;;6146729;23;27459;-47
2020/12/07 06:21:25;;;;;;;2.90;2.20;;;2.30;94.20;;;;;;6146449;23;27588;-46
2020/12/07 06:24:10;;;;;;;2.42;1.98;;;2.30;93.90;;;;;;6125743;23;27415;-46
2020/12/07 06:27:05;;;;;;;2.80;2.50;;;2.20;93.90;;;;;;6147194;23;27461;-48
2020/12/07 06:30:04;;;;;;;2.67;2.22;;;2.20;94.00;;;;;;6217147;22;27409;-47
2020/12/07 06:32:52;;;;;;;2.65;2.20;;;2.10;93.80;;;;;;6269689;22;27418;-46
2020/12/07 06:35:41;;;;;;;2.80;2.28;;;2.10;93.80;;;;;;6269596;22;27272;-47
2020/12/07 06:38:37;;;;;;;2.60;2.00;;;2.00;93.90;;;;;;6270438;22;27364;-48
2020/12/07 06:41:32;;;;;;;2.72;2.35;;;2.00;93.60;;;;;;6269053;22;27388;-48
2020/12/07 06:44:20;;;;;;;5.72;2.70;;;1.90;93.50;;;;;;6269415;22;27395;-48
2020/12/07 06:47:14;;;;;;;3.53;2.78;;;1.90;93.40;;;;;;6269490;22;27941;-48
2020/12/07 06:50:10;;;;;;;4.05;3.05;;;1.80;93.40;;;;;;6249272;22;27352;-49
2020/12/07 06:52:55;;;;;;;3.60;2.90;;;1.80;93.30;;;;;;6269913;22;27334;-48
2020/12/07 06:55:43;;;;;;;3.53;2.80;;;1.80;93.40;;;;;;6247457;22;27355;-47
2020/12/07 06:58:35;;;;;;;3.72;3.08;;;1.80;93.30;;;;;;6247181;22;27393;-48
2020/12/07 07:01:20;;;;;;;4.18;3.00;;;1.70;93.20;;;;;;6269963;22;27278;-47
2020/12/07 07:04:04;;;;;;;3.15;2.58;;;1.70;93.30;;;;;;6269712;22;27329;-47
2020/12/07 07:06:57;;;;;;;5.95;2.95;;;1.70;93.30;;;;;;6269762;22;27407;-47
2020/12/07 07:09:42;;;;;;;4.63;3.40;;;1.60;93.10;;;;;;6269296;22;27465;-50
2020/12/07 07:12:27;;;;;;;4.35;3.10;;;1.60;93.10;;;;;;6247367;22;27478;-48
2020/12/07 07:15:13;;;;;;;3.83;2.90;;;1.60;93.10;;;;;;6270097;22;27345;-48
2020/12/07 07:17:58;;;;;;;4.15;2.95;;;1.60;92.90;;;;;;6268362;22;27798;-48
2020/12/07 07:20:42;;;;;;;3.17;2.60;;;1.60;92.90;;;;;;6269609;22;27438;-63
2020/12/07 07:23:27;;;;;;;3.53;2.95;;;1.50;93.20;;;;;;6269504;22;27358;-50
2020/12/07 07:26:28;;;;;;;3.70;3.17;;;1.50;92.70;;;;;;6269572;22;27316;-47
2020/12/07 07:29:13;;;;;;;4.75;3.30;;;1.50;92.60;;;;;;6269162;22;27400;-47
2020/12/07 07:32:01;;;;;;;3.80;3.08;;;1.50;92.60;;;;;;6268589;22;27284;-47
2020/12/07 07:34:46;;;;;;;3.90;3.08;;;1.50;92.50;;;;;;6269598;22;27379;-47
2020/12/07 07:37:31;;;;;;;4.93;3.22;;;1.50;92.40;;;;;;6269502;22;27364;-47
2020/12/07 07:40:20;;;;;;;5.45;2.88;;;1.50;92.40;;;;;;6269529;22;27455;-47
2020/12/07 07:43:09;;;;;;;3.75;2.70;;;1.50;92.30;;;;;;6268406;22;27367;-47
2020/12/07 07:46:02;;;;;;;5.68;3.60;;;1.50;92.30;;;;;;6269091;22;27289;-47
2020/12/07 07:49:23;;;;;;;5.28;3.38;;;1.50;92.20;;;;;;6268251;22;27286;-48
2020/12/07 08:16:58;;;;;;;5.25;3.75;;;2.60;91.10;;;;;;6268646;22;27814;-47
2020/12/07 08:19:44;;;;;;;4.97;3.60;;;2.90;90.80;;;;;;6268678;22;27426;-47
2020/12/07 08:22:28;;;;;;;4.43;3.70;;;3.30;90.40;;;;;;6269334;22;27508;-52
2020/12/07 08:25:17;;;;;;;7.03;3.67;;;3.80;90.00;;;;;;6270438;22;27413;-49
2020/12/07 08:28:02;;;;;;;5.82;4.20;;;4.30;88.50;;;;;;6270488;22;27332;-48
2020/12/07 08:31:19;;;;;;;5.65;4.15;;;4.90;87.10;;;;;;6269290;22;27321;-48
2020/12/07 08:34:07;;;;;;;5.25;4.20;;;5.50;85.00;;;;;;6261872;22;27302;-47
2020/12/07 08:36:52;;;;;;;5.40;3.80;;;6.00;83.40;;;;;;6270037;22;27467;-47
2020/12/07 08:39:37;;;;;;;4.70;3.58;;;6.50;82.30;;;;;;6270077;22;27452;-49
2020/12/07 08:42:22;;;;;;;4.57;3.83;;;6.70;81.60;;;;;;6270067;22;27452;-50
2020/12/07 08:45:06;;;;;;;6.85;4.80;;;6.80;81.70;;;;;;6270560;22;26800;-48
2020/12/07 08:47:51;;;;;;;5.78;4.20;;;7.00;82.10;;;;;;6270429;22;27352;-49
2020/12/07 08:50:35;;;;;;;6.28;4.30;;;7.10;81.60;;;;;;6270407;22;27921;-47
2020/12/07 08:53:21;;;;;;;6.82;4.45;;;7.30;80.80;;;;;;6270452;22;27392;-47
2020/12/07 08:56:09;;;;;;;5.13;3.90;;;7.40;80.10;;;;;;6269588;22;27384;-65
2020/12/07 08:58:53;;;;;;;5.93;4.55;;;7.50;79.70;;;;;;6270242;22;27418;-48
2020/12/07 09:01:38;;;;;;;7.68;4.68;;;7.70;79.40;;;;;;6270002;22;27892;-49
2020/12/07 09:04:22;;;;;;;6.85;5.07;;;7.80;79.40;;;;;;6269931;22;27445;-48
2020/12/07 09:07:07;;;;;;;8.52;5.70;;;7.80;79.30;;;;;;6271279;22;27351;-47
2020/12/07 09:09:51;;;;;;;9.25;5.55;;;7.70;80.00;;;;;;6270006;22;27364;-47
2020/12/07 09:12:36;;;;;;;9.20;5.97;;;7.70;80.80;;;;;;6270287;22;27380;-50
2020/12/07 09:15:21;;;;;;;11.55;6.75;;;7.60;81.60;;;;;;6270321;22;27360;-49
2020/12/07 09:18:06;;;;;;;16.30;8.27;;;7.80;81.70;;;;;;6270446;22;27356;-50
2020/12/07 09:20:51;;;;;;;13.85;8.43;;;8.00;81.30;;;;;;6270366;22;27407;-48
2020/12/07 09:23:37;;;;;;;13.77;8.27;;;8.30;80.30;;;;;;6269863;22;27472;-47
2020/12/07 09:26:22;;;;;;;14.68;8.05;;;8.60;79.90;;;;;;6269926;22;27432;-48
2020/12/07 09:29:06;;;;;;;14.57;7.97;;;8.80;79.40;;;;;;6270033;22;27363;-48
2020/12/07 09:31:51;;;;;;;12.43;7.35;;;8.70;79.10;;;;;;6270022;22;27345;-47
2020/12/07 09:34:35;;;;;;;11.05;6.90;;;8.40;80.40;;;;;;6269083;22;27364;-47
2020/12/07 09:37:20;;;;;;;10.57;6.88;;;8.30;81.40;;;;;;6270485;22;27339;-48
2020/12/07 09:40:05;;;;;;;10.18;6.30;;;8.10;82.30;;;;;;6270335;22;27316;-49
2020/12/07 09:42:49;;;;;;;14.25;6.72;;;8.00;82.80;;;;;;6269835;22;27311;-48
2020/12/07 09:45:34;;;;;;;10.38;5.80;;;8.00;83.40;;;;;;6270324;22;27331;-64
2020/12/07 09:48:18;;;;;;;8.30;5.57;;;7.90;83.70;;;;;;6270187;22;27356;-48
2020/12/07 09:51:03;;;;;;;7.90;5.22;;;8.10;83.60;;;;;;6270320;22;27313;-48
2020/12/07 09:53:47;;;;;;;9.45;5.78;;;8.30;83.10;;;;;;6270258;22;27262;-48
2020/12/07 09:56:32;;;;;;;7.68;5.38;;;8.50;82.50;;;;;;6269524;22;27844;-50
2020/12/07 09:59:16;;;;;;;7.03;4.85;;;8.70;82.20;;;;;;6269781;22;27366;-48
2020/12/07 10:02:01;;;;;;;6.28;4.90;;;8.70;81.90;;;;;;6269853;22;27338;-46
2020/12/07 10:04:46;;;;;;;7.53;4.95;;;8.60;82.00;;;;;;6269681;22;27287;-46
2020/12/07 10:07:31;;;;;;;6.72;4.60;;;8.60;82.30;;;;;;6269637;22;27281;-47
2020/12/07 10:10:16;;;;;;;6.63;4.70;;;8.60;82.10;;;;;;6270054;22;27361;-48
2020/12/07 10:13:01;;;;;;;6.00;4.50;;;8.80;81.50;;;;;;6270139;22;26873;-48
2020/12/07 10:15:45;;;;;;;6.75;4.85;;;9.20;80.80;;;;;;6269798;22;27327;-48
2020/12/07 10:18:29;;;;;;;5.47;4.43;;;9.60;79.70;;;;;;6270174;22;27372;-46
2020/12/07 10:21:17;;;;;;;5.10;4.03;;;9.90;78.80;;;;;;6269943;22;27426;-49
2020/12/07 10:24:01;;;;;;;6.22;4.57;;;10.10;78.20;;;;;;6270020;22;27289;-48
2020/12/07 10:26:46;;;;;;;5.80;4.35;;;10.20;78.00;;;;;;6268713;22;27566;-52
2020/12/07 10:29:31;;;;;;;4.22;3.80;;;10.20;77.50;;;;;;6270337;22;27313;-49
2020/12/07 10:32:16;;;;;;;5.10;3.65;;;10.20;77.30;;;;;;6269630;22;27289;-48
2020/12/07 10:35:03;;;;;;;4.30;3.22;;;10.20;77.20;;;;;;6269646;22;27331;-50
2020/12/07 10:37:48;;;;;;;4.88;3.70;;;10.00;77.10;;;;;;6270035;22;26809;-49
2020/12/07 10:40:35;;;;;;;4.07;3.47;;;9.80;76.90;;;;;;6269587;22;27786;-50
2020/12/07 10:43:19;;;;;;;4.40;3.50;;;9.50;77.20;;;;;;6269853;22;27322;-51
2020/12/07 10:46:06;;;;;;;5.22;3.10;;;9.30;77.60;;;;;;6269369;22;27367;-63
2020/12/07 10:48:51;;;;;;;3.50;3.05;;;9.00;78.20;;;;;;6268672;22;27424;-47
2020/12/07 10:51:36;;;;;;;4.18;3.33;;;8.80;79.00;;;;;;6269549;22;27363;-47
2020/12/07 10:54:21;;;;;;;3.85;3.45;;;8.60;80.00;;;;;;6269288;22;27359;-48
2020/12/07 10:57:05;;;;;;;4.45;3.17;;;8.50;81.10;;;;;;6269091;22;27372;-63
2020/12/07 10:59:50;;;;;;;4.47;3.42;;;8.30;82.20;;;;;;6269570;22;27340;-47
2020/12/07 11:02:34;;;;;;;3.42;2.88;;;8.20;83.00;;;;;;6269961;22;28008;-47
2020/12/07 11:05:19;;;;;;;3.85;3.33;;;8.00;83.80;;;;;;6269438;22;27293;-46
2020/12/07 11:08:12;;;;;;;4.45;3.50;;;8.00;84.50;;;;;;6269963;22;27344;-47
2020/12/07 11:10:57;;;;;;;4.22;3.35;;;7.90;85.00;;;;;;6269781;22;27281;-49
2020/12/07 11:13:42;;;;;;;3.92;3.40;;;7.80;85.40;;;;;;6269308;22;27334;-50
2020/12/07 11:16:27;;;;;;;5.95;4.38;;;7.80;85.80;;;;;;6269342;22;27562;-48
2020/12/07 11:19:12;;;;;;;4.32;3.45;;;7.80;86.20;;;;;;6268843;22;27280;-49
2020/12/07 11:21:56;;;;;;;5.18;3.08;;;8.00;86.30;;;;;;6269299;22;27277;-49
2020/12/07 11:24:41;;;;;;;4.68;3.45;;;8.10;86.00;;;;;;6269524;22;27277;-48
2020/12/07 11:27:25;;;;;;;4.18;3.38;;;8.40;85.00;;;;;;6269213;22;27345;-47
2020/12/07 11:30:10;;;;;;;4.38;3.42;;;8.60;84.40;;;;;;6269354;22;27297;-47
2020/12/07 11:32:55;;;;;;;3.85;3.45;;;8.70;83.80;;;;;;6269493;22;27439;-48
2020/12/07 11:35:39;;;;;;;3.83;3.42;;;8.80;83.00;;;;;;6269337;22;27387;-47
2020/12/07 11:38:26;;;;;;;4.40;3.25;;;8.80;82.80;;;;;;6269308;22;27352;-47
2020/12/07 11:44:16;;;;;;;3.83;3.40;;;8.60;83.90;;;;;;6269255;22;27431;-47
2020/12/07 11:47:10;;;;;;;4.78;3.53;;;8.50;84.30;;;;;;6269222;22;27285;-50
2020/12/07 11:49:55;;;;;;;4.63;3.47;;;8.40;84.60;;;;;;6269320;22;27538;-47
2020/12/07 11:52:39;;;;;;;4.63;3.53;;;8.20;85.00;;;;;;6268971;22;27378;-48
2020/12/07 11:55:24;;;;;;;4.05;3.65;;;8.10;85.10;;;;;;6268936;22;27356;-48
2020/12/07 11:58:08;;;;;;;4.15;3.75;;;8.00;85.30;;;;;;6269999;22;27474;-63
2020/12/07 12:00:53;;;;;;;5.97;4.15;;;7.90;85.50;;;;;;6269715;22;27401;-47
2020/12/07 12:03:37;;;;;;;3.90;3.40;;;7.80;85.70;;;;;;6270630;22;27405;-50
2020/12/07 12:06:34;;;;;;;4.05;3.65;;;7.70;86.20;;;;;;6270644;22;27356;-48
2020/12/07 12:09:18;;;;;;;4.63;3.80;;;7.60;86.60;;;;;;6270608;22;27332;-48
2020/12/07 12:12:03;;;;;;;4.97;4.47;;;7.50;86.70;;;;;;6270525;22;27528;-48
2020/12/07 12:14:48;;;;;;;5.10;3.80;;;7.50;86.90;;;;;;6270354;22;27413;-47
2020/12/07 12:17:33;;;;;;;4.05;3.63;;;7.50;86.90;;;;;;6270248;22;27403;-49
2020/12/07 12:20:17;;;;;;;5.25;4.05;;;7.50;87.10;;;;;;6270175;22;27403;-47
2020/12/07 12:23:02;;;;;;;6.55;4.03;;;7.40;87.30;;;;;;6270531;22;27452;-46
2020/12/07 12:25:46;;;;;;;6.30;4.00;;;7.40;87.60;;;;;;6270588;22;27364;-49
2020/12/07 12:28:31;;;;;;;6.43;4.43;;;7.30;87.70;;;;;;6270623;22;27431;-49
2020/12/07 12:31:16;;;;;;;4.20;3.67;;;7.30;87.90;;;;;;6270003;22;27369;-46
2020/12/07 12:34:01;;;;;;;5.88;4.57;;;7.30;87.90;;;;;;6270208;22;27367;-47
2020/12/07 12:36:47;;;;;;;6.28;4.75;;;7.30;87.90;;;;;;6270599;22;27364;-49
2020/12/07 12:39:32;;;;;;;4.97;4.25;;;7.20;88.20;;;;;;6270548;22;27336;-47
2020/12/07 12:42:17;;;;;;;5.25;4.18;;;7.20;88.40;;;;;;6269189;22;27412;-62
2020/12/07 12:45:02;;;;;;;5.03;4.28;;;7.10;88.50;;;;;;6270065;22;27423;-47
2020/12/07 12:47:46;;;;;;;4.82;4.18;;;7.00;88.50;;;;;;6270270;22;27409;-62
2020/12/07 12:50:31;;;;;;;4.63;4.13;;;6.90;88.50;;;;;;6270093;22;27471;-46
2020/12/07 12:53:16;;;;;;;4.82;3.58;;;6.90;88.70;;;;;;6270381;22;27785;-46
2020/12/07 12:56:00;;;;;;;4.65;3.85;;;6.80;88.80;;;;;;6269708;22;27448;-62
2020/12/07 12:58:46;;;;;;;4.72;3.80;;;6.80;89.10;;;;;;6270192;22;27351;-47
2020/12/07 13:01:35;;;;;;;4.93;3.88;;;6.80;89.10;;;;;;6270061;22;27414;-62
2020/12/07 13:04:20;;;;;;;5.78;3.67;;;6.80;89.20;;;;;;6270293;22;27356;-45
2020/12/07 13:07:04;;;;;;;4.55;3.70;;;6.80;89.20;;;;;;6270203;22;27407;-47
2020/12/07 13:09:49;;;;;;;4.28;3.40;;;6.80;89.20;;;;;;6269285;22;27377;-46
2020/12/07 13:12:33;;;;;;;5.10;3.75;;;6.70;89.20;;;;;;6270467;22;27406;-46
2020/12/07 13:15:19;;;;;;;4.32;3.80;;;6.70;89.20;;;;;;6269596;22;27365;-46
2020/12/07 13:18:08;;;;;;;5.05;3.55;;;6.70;89.20;;;;;;6269970;22;27368;-47
2020/12/07 13:21:32;;;;;;;6.72;4.07;;;6.60;89.10;;;;;;6270367;22;27326;-46
2020/12/07 13:24:15;;;;;;;5.22;4.30;;;6.60;89.30;;;;;;6269779;22;27421;-46
2020/12/07 13:27:34;;;;;;;4.88;3.90;;;6.60;89.40;;;;;;6247160;22;27927;-48
2020/12/07 13:30:24;;;;;;;5.63;4.28;;;6.60;89.70;;;;;;6269110;22;27297;-48
2020/12/07 13:33:10;;;;;;;6.60;3.78;;;6.60;89.60;;;;;;6269835;22;27404;-46
2020/12/07 13:35:55;;;;;;;4.93;3.63;;;6.50;89.60;;;;;;6269789;22;27316;-46
2020/12/07 13:38:40;;;;;;;5.32;3.38;;;6.50;89.50;;;;;;6270067;22;27797;-47
2020/12/07 13:41:24;;;;;;;6.40;4.32;;;6.50;89.30;;;;;;6269172;22;27445;-50
2020/12/07 13:44:09;;;;;;;4.43;3.28;;;6.50;89.00;;;;;;6268723;22;27369;-48
2020/12/07 13:46:57;;;;;;;7.18;4.30;;;6.40;88.80;;;;;;6269728;22;27346;-47
2020/12/07 13:49:41;;;;;;;4.65;3.40;;;6.40;88.60;;;;;;6270452;22;27269;-47
2020/12/07 13:52:28;;;;;;;4.07;3.08;;;6.40;88.90;;;;;;6269763;22;27360;-48
2020/12/07 13:55:13;;;;;;;3.40;2.88;;;6.40;88.80;;;;;;6270080;22;27325;-48
2020/12/07 13:58:00;;;;;;;3.65;3.10;;;6.40;88.80;;;;;;6269793;22;27788;-47
2020/12/07 14:00:45;;;;;;;4.47;3.10;;;6.40;88.80;;;;;;6269507;22;27403;-48
2020/12/07 14:03:36;;;;;;;5.07;3.47;;;6.40;88.90;;;;;;6270022;22;27417;-52
2020/12/07 14:06:27;;;;;;;4.60;2.90;;;6.40;88.90;;;;;;6269574;22;27364;-55
2020/12/07 14:09:15;;;;;;;3.88;3.22;;;6.40;88.50;;;;;;6269457;22;27336;-47
2020/12/07 14:12:01;;;;;;;4.97;3.08;;;6.30;88.30;;;;;;6269500;22;27427;-62
2020/12/07 14:14:46;;;;;;;3.60;2.80;;;6.30;88.40;;;;;;6269843;22;27330;-47
2020/12/07 14:17:36;;;;;;;4.55;3.42;;;6.30;88.30;;;;;;6269895;22;27317;-46
2020/12/07 14:20:41;;;;;;;4.15;3.33;;;6.30;88.50;;;;;;6269045;22;27417;-48
2020/12/07 14:41:24;;;;;;;4.03;3.42;;;6.00;88.40;;;;;;6269369;22;27277;-48
2020/12/07 14:44:09;;;;;;;6.20;4.13;;;5.90;88.40;;;;;;6269363;22;27363;-63
2020/12/07 14:46:57;;;;;;;4.45;3.30;;;5.90;89.10;;;;;;6269613;22;27279;-50
2020/12/07 14:49:41;;;;;;;7.65;3.67;;;5.80;88.70;;;;;;6269567;22;27437;-48
2020/12/07 14:52:29;;;;;;;5.13;3.38;;;5.80;89.00;;;;;;6269812;22;27423;-48
2020/12/07 14:56:05;;;;;;;4.20;3.28;;;5.70;90.00;;;;;;6269688;22;27418;-49
2020/12/07 15:07:15;;;;;;;6.35;3.60;;;5.70;90.30;;;;;;6269595;22;27342;-62
2020/12/07 15:15:58;;;;;;;5.05;3.55;;;5.60;90.70;;;;;;6269208;22;27367;-51
2020/12/07 15:18:45;;;;;;;5.30;3.35;;;5.50;90.70;;;;;;6269294;22;27410;-48
2020/12/07 15:21:30;;;;;;;6.45;4.43;;;5.50;90.70;;;;;;6268057;22;27419;-62
2020/12/07 15:24:15;;;;;;;5.15;3.70;;;5.50;90.70;;;;;;6268849;22;27383;-49
2020/12/07 15:27:00;;;;;;;6.32;4.25;;;5.40;90.80;;;;;;6269377;22;27365;-46
2020/12/07 15:29:44;;;;;;;5.40;3.92;;;5.30;90.90;;;;;;6267908;22;27383;-47
2020/12/07 15:32:31;;;;;;;4.78;3.47;;;5.30;91.10;;;;;;6269997;22;27368;-48
2020/12/07 15:35:19;;;;;;;5.13;3.70;;;5.20;91.10;;;;;;6270511;22;27297;-48
2020/12/07 15:38:04;;;;;;;5.50;4.07;;;5.20;91.30;;;;;;6270325;22;27344;-47